sensor_id;sensor_type;location;lat;lon;timestamp;pressure;altitude;pressure_sealevel;temperature;humidity
51687;BME280;37774;52.192;4.584;2023-01-26T00:02:00;102693.47;;;-2.03;100.00
51687;BME280;37774;52.192;4.584;2023-01-26T00:04:27;102996.72;;;0.05;100.00
51687;BME280;37774;52.192;4.584;2023-01-26T00:06:53;102912.91;;;-0.49;100.00
51687;BME280;37774;52.192;4.584;2023-01-26T00:09:20;102703.91;;;-1.77;100.00
51687;BME280;37774;52.192;4.584;2023-01-26T00:11:47;102984.63;;;0.02;100.00
51687;BME280;37774;52.192;4.584;2023-01-26T00:14:14;102981.94;;;0.01;100.00
51687;BME280;37774;52.192;4.584;2023-01-26T00:16:41;102939.78;;;-0.42;100.00
51687;BME280;37774;52.192;4.584;2023-01-26T00:19:09;102975.97;;;0.00;100.00
51687;BME280;37774;52.192;4.584;2023-01-26T00:21:36;102969.94;;;-0.01;100.00
51687;BME280;37774;52.192;4.584;2023-01-26T00:24:03;102955.09;;;-0.18;100.00
51687;BME280;37774;52.192;4.584;2023-01-26T00:26:29;102972.25;;;0.08;100.00
51687;BME280;37774;52.192;4.584;2023-01-26T00:28:58;102957.03;;;-0.02;100.00
51687;BME280;37774;52.192;4.584;2023-01-26T00:31:26;102931.72;;;0.01;100.00
51687;BME280;37774;52.192;4.584;2023-01-26T00:33:54;102960.34;;;0.09;100.00
51687;BME280;37774;52.192;4.584;2023-01-26T00:36:23;102839.75;;;-0.60;100.00
51687;BME280;37774;52.192;4.584;2023-01-26T00:38:50;102954.88;;;0.16;100.00
51687;BME280;37774;52.192;4.584;2023-01-26T00:41:17;102953.47;;;0.08;100.00
51687;BME280;37774;52.192;4.584;2023-01-26T00:44:02;102940.81;;;0.09;100.00
51687;BME280;37774;52.192;4.584;2023-01-26T00:46:28;102921.00;;;0.07;100.00
51687;BME280;37774;52.192;4.584;2023-01-26T00:48:55;102860.25;;;-0.35;100.00
51687;BME280;37774;52.192;4.584;2023-01-26T00:51:23;102542.81;;;-2.44;100.00
51687;BME280;37774;52.192;4.584;2023-01-26T00:53:50;102941.22;;;0.16;100.00
51687;BME280;37774;52.192;4.584;2023-01-26T00:56:17;102929.22;;;0.14;100.00
51687;BME280;37774;52.192;4.584;2023-01-26T00:58:43;102928.09;;;0.11;100.00
51687;BME280;37774;52.192;4.584;2023-01-26T01:01:11;102929.88;;;0.12;100.00
51687;BME280;37774;52.192;4.584;2023-01-26T01:03:37;102930.44;;;0.08;100.00
51687;BME280;37774;52.192;4.584;2023-01-26T01:06:04;102924.03;;;0.01;100.00
51687;BME280;37774;52.192;4.584;2023-01-26T01:08:32;102560.53;;;-2.10;100.00
51687;BME280;37774;52.192;4.584;2023-01-26T01:11:04;102886.16;;;-0.17;100.00
51687;BME280;37774;52.192;4.584;2023-01-26T01:13:32;102923.69;;;0.08;100.00
51687;BME280;37774;52.192;4.584;2023-01-26T01:15:58;102861.97;;;-0.22;100.00
51687;BME280;37774;52.192;4.584;2023-01-26T01:18:25;102927.13;;;0.09;100.00
51687;BME280;37774;52.192;4.584;2023-01-26T01:20:52;102921.63;;;0.16;100.00
51687;BME280;37774;52.192;4.584;2023-01-26T01:23:19;102868.19;;;-0.18;100.00
51687;BME280;37774;52.192;4.584;2023-01-26T01:25:55;102944.56;;;0.14;100.00
51687;BME280;37774;52.192;4.584;2023-01-26T01:28:22;102771.94;;;-0.68;100.00
51687;BME280;37774;52.192;4.584;2023-01-26T01:30:49;102923.63;;;0.20;100.00
51687;BME280;37774;52.192;4.584;2023-01-26T01:33:16;102876.28;;;-0.12;100.00
51687;BME280;37774;52.192;4.584;2023-01-26T01:35:43;102927.88;;;0.20;100.00
51687;BME280;37774;52.192;4.584;2023-01-26T01:38:10;102925.19;;;0.18;100.00
51687;BME280;37774;52.192;4.584;2023-01-26T01:40:41;102928.06;;;0.23;100.00
51687;BME280;37774;52.192;4.584;2023-01-26T01:43:10;102920.28;;;0.21;100.00
51687;BME280;37774;52.192;4.584;2023-01-26T01:45:43;102918.31;;;0.17;100.00
51687;BME280;37774;52.192;4.584;2023-01-26T01:48:17;102925.09;;;0.17;100.00
51687;BME280;37774;52.192;4.584;2023-01-26T01:50:46;102931.94;;;0.29;100.00
51687;BME280;37774;52.192;4.584;2023-01-26T01:53:17;102928.72;;;0.32;100.00
51687;BME280;37774;52.192;4.584;2023-01-26T01:55:50;102930.28;;;0.30;100.00
51687;BME280;37774;52.192;4.584;2023-01-26T01:58:20;102932.13;;;0.33;100.00
51687;BME280;37774;52.192;4.584;2023-01-26T02:00:47;102930.19;;;0.42;100.00
51687;BME280;37774;52.192;4.584;2023-01-26T02:03:14;102697.69;;;-1.21;100.00
51687;BME280;37774;52.192;4.584;2023-01-26T02:05:53;102930.53;;;0.47;100.00
51687;BME280;37774;52.192;4.584;2023-01-26T02:08:24;102934.44;;;0.41;100.00
51687;BME280;37774;52.192;4.584;2023-01-26T02:10:54;102936.19;;;0.54;100.00
51687;BME280;37774;52.192;4.584;2023-01-26T02:13:23;102931.84;;;0.53;100.00
51687;BME280;37774;52.192;4.584;2023-01-26T02:15:52;102853.91;;;-0.03;100.00
51687;BME280;37774;52.192;4.584;2023-01-26T02:18:19;102926.81;;;0.55;100.00
51687;BME280;37774;52.192;4.584;2023-01-26T02:20:48;102843.63;;;-0.16;100.00
51687;BME280;37774;52.192;4.584;2023-01-26T02:23:24;102929.94;;;0.51;100.00
51687;BME280;37774;52.192;4.584;2023-01-26T02:26:04;102838.53;;;0.09;100.00
51687;BME280;37774;52.192;4.584;2023-01-26T02:28:31;102927.13;;;0.60;100.00
51687;BME280;37774;52.192;4.584;2023-01-26T02:30:58;102861.59;;;0.23;100.00
51687;BME280;37774;52.192;4.584;2023-01-26T02:33:27;102920.13;;;0.57;100.00
51687;BME280;37774;52.192;4.584;2023-01-26T02:35:54;102910.59;;;0.54;100.00
51687;BME280;37774;52.192;4.584;2023-01-26T02:38:22;102923.00;;;0.62;100.00
51687;BME280;37774;52.192;4.584;2023-01-26T02:40:53;102927.59;;;0.54;100.00
51687;BME280;37774;52.192;4.584;2023-01-26T02:43:24;102920.13;;;0.57;100.00
51687;BME280;37774;52.192;4.584;2023-01-26T02:45:51;102931.94;;;0.55;100.00
51687;BME280;37774;52.192;4.584;2023-01-26T02:48:17;102935.69;;;0.60;100.00
51687;BME280;37774;52.192;4.584;2023-01-26T02:51:05;102934.44;;;0.67;100.00
51687;BME280;37774;52.192;4.584;2023-01-26T02:53:32;102902.53;;;0.62;100.00
51687;BME280;37774;52.192;4.584;2023-01-26T02:55:58;102930.91;;;0.78;100.00
51687;BME280;37774;52.192;4.584;2023-01-26T02:58:26;102933.75;;;0.69;100.00
51687;BME280;37774;52.192;4.584;2023-01-26T03:00:52;102929.16;;;0.77;100.00
51687;BME280;37774;52.192;4.584;2023-01-26T03:03:22;102877.66;;;0.47;100.00
51687;BME280;37774;52.192;4.584;2023-01-26T03:05:49;102931.06;;;0.54;100.00
51687;BME280;37774;52.192;4.584;2023-01-26T03:08:16;102932.09;;;0.70;100.00
51687;BME280;37774;52.192;4.584;2023-01-26T03:10:43;102919.25;;;0.56;100.00
51687;BME280;37774;52.192;4.584;2023-01-26T03:13:11;102928.78;;;0.59;100.00
51687;BME280;37774;52.192;4.584;2023-01-26T03:15:40;102931.88;;;0.67;100.00
51687;BME280;37774;52.192;4.584;2023-01-26T03:18:17;102938.47;;;0.77;100.00
51687;BME280;37774;52.192;4.584;2023-01-26T03:21:04;102932.50;;;0.76;100.00
51687;BME280;37774;52.192;4.584;2023-01-26T03:23:49;102933.09;;;0.85;100.00
51687;BME280;37774;52.192;4.584;2023-01-26T03:26:34;102930.41;;;0.84;100.00
51687;BME280;37774;52.192;4.584;2023-01-26T03:29:19;102924.13;;;0.79;100.00
51687;BME280;37774;52.192;4.584;2023-01-26T03:31:47;102813.09;;;0.24;100.00
51687;BME280;37774;52.192;4.584;2023-01-26T03:34:15;102935.69;;;0.99;100.00
51687;BME280;37774;52.192;4.584;2023-01-26T03:36:41;102811.91;;;0.33;100.00
51687;BME280;37774;52.192;4.584;2023-01-26T03:39:08;102932.34;;;1.00;100.00
51687;BME280;37774;52.192;4.584;2023-01-26T03:41:55;102622.38;;;-0.90;100.00
51687;BME280;37774;52.192;4.584;2023-01-26T03:44:39;102926.09;;;0.96;100.00
51687;BME280;37774;52.192;4.584;2023-01-26T03:47:24;102928.78;;;0.98;100.00
51687;BME280;37774;52.192;4.584;2023-01-26T03:50:09;102911.03;;;0.87;100.00
51687;BME280;37774;52.192;4.584;2023-01-26T03:52:54;102907.19;;;0.94;100.00
51687;BME280;37774;52.192;4.584;2023-01-26T03:55:38;102907.91;;;0.92;100.00
51687;BME280;37774;52.192;4.584;2023-01-26T03:58:22;102883.34;;;0.68;100.00
51687;BME280;37774;52.192;4.584;2023-01-26T04:00:49;102925.94;;;1.07;100.00
51687;BME280;37774;52.192;4.584;2023-01-26T04:03:17;102930.16;;;1.06;100.00
51687;BME280;37774;52.192;4.584;2023-01-26T04:06:02;102942.97;;;1.06;100.00
51687;BME280;37774;52.192;4.584;2023-01-26T04:08:46;102923.66;;;1.11;100.00
51687;BME280;37774;52.192;4.584;2023-01-26T04:11:13;102903.56;;;1.04;100.00
51687;BME280;37774;52.192;4.584;2023-01-26T04:13:40;102926.94;;;1.22;100.00
51687;BME280;37774;52.192;4.584;2023-01-26T04:16:24;102819.94;;;0.64;100.00
51687;BME280;37774;52.192;4.584;2023-01-26T04:19:09;102905.75;;;1.11;100.00
51687;BME280;37774;52.192;4.584;2023-01-26T04:21:53;102918.56;;;1.25;100.00
51687;BME280;37774;52.192;4.584;2023-01-26T04:24:20;102900.03;;;1.02;100.00
51687;BME280;37774;52.192;4.584;2023-01-26T04:26:47;102919.94;;;1.20;100.00
51687;BME280;37774;52.192;4.584;2023-01-26T04:29:14;102918.47;;;1.23;100.00
51687;BME280;37774;52.192;4.584;2023-01-26T04:31:41;102880.72;;;1.07;100.00
51687;BME280;37774;52.192;4.584;2023-01-26T04:34:13;102882.69;;;1.11;100.00
51687;BME280;37774;52.192;4.584;2023-01-26T04:36:40;102912.75;;;1.27;100.00
51687;BME280;37774;52.192;4.584;2023-01-26T04:39:07;102926.22;;;1.38;100.00
51687;BME280;37774;52.192;4.584;2023-01-26T04:41:34;102908.91;;;1.34;100.00
51687;BME280;37774;52.192;4.584;2023-01-26T04:44:01;102871.78;;;1.14;100.00
51687;BME280;37774;52.192;4.584;2023-01-26T04:46:28;102910.19;;;1.41;100.00
51687;BME280;37774;52.192;4.584;2023-01-26T04:48:54;102906.72;;;1.40;100.00
51687;BME280;37774;52.192;4.584;2023-01-26T04:51:23;102903.38;;;1.41;100.00
51687;BME280;37774;52.192;4.584;2023-01-26T04:53:50;102907.63;;;1.41;100.00
51687;BME280;37774;52.192;4.584;2023-01-26T04:56:21;102851.94;;;1.25;100.00
51687;BME280;37774;52.192;4.584;2023-01-26T04:58:48;102891.84;;;1.48;100.00
51687;BME280;37774;52.192;4.584;2023-01-26T05:01:15;102886.59;;;1.46;100.00
51687;BME280;37774;52.192;4.584;2023-01-26T05:03:42;102885.03;;;1.49;100.00
51687;BME280;37774;52.192;4.584;2023-01-26T05:06:09;102811.09;;;0.99;100.00
51687;BME280;37774;52.192;4.584;2023-01-26T05:08:38;102883.03;;;1.58;100.00
51687;BME280;37774;52.192;4.584;2023-01-26T05:11:05;102854.88;;;1.44;100.00
51687;BME280;37774;52.192;4.584;2023-01-26T05:13:32;102855.38;;;1.52;100.00
51687;BME280;37774;52.192;4.584;2023-01-26T05:16:00;102870.72;;;1.66;100.00
51687;BME280;37774;52.192;4.584;2023-01-26T05:18:27;102868.53;;;1.72;100.00
51687;BME280;37774;52.192;4.584;2023-01-26T05:20:54;102878.69;;;1.70;100.00
51687;BME280;37774;52.192;4.584;2023-01-26T05:23:21;102847.06;;;1.56;100.00
51687;BME280;37774;52.192;4.584;2023-01-26T05:25:49;102871.66;;;1.81;100.00
51687;BME280;37774;52.192;4.584;2023-01-26T05:28:16;102714.38;;;0.95;100.00
51687;BME280;37774;52.192;4.584;2023-01-26T05:30:43;102868.06;;;1.93;100.00
51687;BME280;37774;52.192;4.584;2023-01-26T05:33:10;102861.59;;;1.84;100.00
51687;BME280;37774;52.192;4.584;2023-01-26T05:35:37;102877.34;;;1.90;100.00
51687;BME280;37774;52.192;4.584;2023-01-26T05:38:04;102555.50;;;-0.05;100.00
51687;BME280;37774;52.192;4.584;2023-01-26T05:40:30;102885.69;;;2.01;100.00
51687;BME280;37774;52.192;4.584;2023-01-26T05:42:58;102884.00;;;2.02;100.00
51687;BME280;37774;52.192;4.584;2023-01-26T05:45:25;102861.69;;;1.86;100.00
51687;BME280;37774;52.192;4.584;2023-01-26T05:47:52;102899.88;;;2.10;100.00
51687;BME280;37774;52.192;4.584;2023-01-26T05:50:19;102825.25;;;1.77;100.00
51687;BME280;37774;52.192;4.584;2023-01-26T05:52:46;102898.66;;;2.18;100.00
51687;BME280;37774;52.192;4.584;2023-01-26T05:55:14;102763.53;;;1.45;100.00
51687;BME280;37774;52.192;4.584;2023-01-26T05:57:41;102906.09;;;2.28;100.00
51687;BME280;37774;52.192;4.584;2023-01-26T06:00:12;102907.19;;;2.32;100.00
51687;BME280;37774;52.192;4.584;2023-01-26T06:02:39;102909.03;;;2.34;100.00
51687;BME280;37774;52.192;4.584;2023-01-26T06:05:07;102910.19;;;2.40;100.00
51687;BME280;37774;52.192;4.584;2023-01-26T06:07:34;102920.56;;;2.41;100.00
51687;BME280;37774;52.192;4.584;2023-01-26T06:10:00;102912.34;;;2.47;100.00
51687;BME280;37774;52.192;4.584;2023-01-26T06:12:27;102918.63;;;2.52;100.00
51687;BME280;37774;52.192;4.584;2023-01-26T06:14:56;102860.09;;;2.16;100.00
51687;BME280;37774;52.192;4.584;2023-01-26T06:17:24;102571.28;;;0.56;100.00
51687;BME280;37774;52.192;4.584;2023-01-26T06:19:51;102931.22;;;2.77;100.00
51687;BME280;37774;52.192;4.584;2023-01-26T06:22:21;102939.28;;;2.84;100.00
51687;BME280;37774;52.192;4.584;2023-01-26T06:24:47;102952.22;;;2.85;100.00
51687;BME280;37774;52.192;4.584;2023-01-26T06:27:16;102950.72;;;2.89;100.00
51687;BME280;37774;52.192;4.584;2023-01-26T06:29:43;102875.78;;;2.51;100.00
51687;BME280;37774;52.192;4.584;2023-01-26T06:32:10;102634.56;;;0.87;100.00
51687;BME280;37774;52.192;4.584;2023-01-26T06:34:38;103016.72;;;3.05;100.00
51687;BME280;37774;52.192;4.584;2023-01-26T06:37:06;102716.50;;;1.44;100.00
51687;BME280;37774;52.192;4.584;2023-01-26T06:39:33;103006.19;;;3.15;100.00
51687;BME280;37774;52.192;4.584;2023-01-26T06:41:59;102723.16;;;1.56;100.00
51687;BME280;37774;52.192;4.584;2023-01-26T06:44:26;103017.16;;;3.28;100.00
51687;BME280;37774;52.192;4.584;2023-01-26T06:46:53;103044.38;;;3.39;100.00
51687;BME280;37774;52.192;4.584;2023-01-26T06:49:20;103020.97;;;3.19;100.00
51687;BME280;37774;52.192;4.584;2023-01-26T06:51:57;102982.94;;;3.14;100.00
51687;BME280;37774;52.192;4.584;2023-01-26T06:54:24;103058.03;;;3.53;100.00
51687;BME280;37774;52.192;4.584;2023-01-26T06:56:51;103065.13;;;3.57;100.00
51687;BME280;37774;52.192;4.584;2023-01-26T06:59:18;102865.13;;;2.15;100.00
51687;BME280;37774;52.192;4.584;2023-01-26T07:01:45;102845.28;;;1.97;100.00
51687;BME280;37774;52.192;4.584;2023-01-26T07:04:14;103049.44;;;3.38;100.00
51687;BME280;37774;52.192;4.584;2023-01-26T07:06:41;103097.63;;;3.57;100.00
51687;BME280;37774;52.192;4.584;2023-01-26T07:09:10;103041.88;;;3.11;100.00
51687;BME280;37774;52.192;4.584;2023-01-26T07:11:37;103090.19;;;3.46;100.00
51687;BME280;37774;52.192;4.584;2023-01-26T07:14:03;102868.22;;;2.24;100.00
51687;BME280;37774;52.192;4.584;2023-01-26T07:16:30;103086.72;;;3.61;100.00
51687;BME280;37774;52.192;4.584;2023-01-26T07:18:57;103090.13;;;3.45;100.00
51687;BME280;37774;52.192;4.584;2023-01-26T07:21:23;103100.75;;;3.36;100.00
51687;BME280;37774;52.192;4.584;2023-01-26T07:23:50;102861.53;;;1.98;100.00
51687;BME280;37774;52.192;4.584;2023-01-26T07:26:19;103024.69;;;2.95;100.00
51687;BME280;37774;52.192;4.584;2023-01-26T07:28:46;102994.19;;;2.86;100.00
51687;BME280;37774;52.192;4.584;2023-01-26T07:31:13;102710.94;;;1.08;100.00
51687;BME280;37774;52.192;4.584;2023-01-26T07:33:40;102754.50;;;1.37;100.00
51687;BME280;37774;52.192;4.584;2023-01-26T07:36:07;102802.66;;;1.71;100.00
51687;BME280;37774;52.192;4.584;2023-01-26T07:38:35;103084.88;;;3.28;100.00
51687;BME280;37774;52.192;4.584;2023-01-26T07:41:07;103085.75;;;3.29;100.00
51687;BME280;37774;52.192;4.584;2023-01-26T07:43:36;103091.44;;;3.23;100.00
51687;BME280;37774;52.192;4.584;2023-01-26T07:46:04;103095.69;;;3.22;100.00
51687;BME280;37774;52.192;4.584;2023-01-26T07:48:31;103087.97;;;3.22;100.00
51687;BME280;37774;52.192;4.584;2023-01-26T07:50:59;103030.69;;;2.80;100.00
51687;BME280;37774;52.192;4.584;2023-01-26T07:53:27;102874.28;;;1.96;100.00
51687;BME280;37774;52.192;4.584;2023-01-26T07:56:07;103098.75;;;3.17;100.00
51687;BME280;37774;52.192;4.584;2023-01-26T07:58:35;102788.94;;;1.13;100.00
51687;BME280;37774;52.192;4.584;2023-01-26T08:01:07;103101.44;;;3.18;100.00
51687;BME280;37774;52.192;4.584;2023-01-26T08:03:35;103055.56;;;2.81;100.00
51687;BME280;37774;52.192;4.584;2023-01-26T08:06:02;103107.47;;;3.19;100.00
51687;BME280;37774;52.192;4.584;2023-01-26T08:08:29;102891.75;;;1.88;100.00
51687;BME280;37774;52.192;4.584;2023-01-26T08:10:57;103111.41;;;3.14;100.00
51687;BME280;37774;52.192;4.584;2023-01-26T08:13:25;103087.38;;;2.83;100.00
51687;BME280;37774;52.192;4.584;2023-01-26T08:15:53;103051.03;;;2.77;100.00
51687;BME280;37774;52.192;4.584;2023-01-26T08:18:20;103113.31;;;3.16;100.00
51687;BME280;37774;52.192;4.584;2023-01-26T08:20:51;103037.06;;;2.58;100.00
51687;BME280;37774;52.192;4.584;2023-01-26T08:23:18;103116.72;;;3.02;100.00
51687;BME280;37774;52.192;4.584;2023-01-26T08:25:45;103084.44;;;2.77;100.00
51687;BME280;37774;52.192;4.584;2023-01-26T08:28:12;103137.72;;;3.10;100.00
51687;BME280;37774;52.192;4.584;2023-01-26T08:30:40;103128.53;;;3.13;100.00
51687;BME280;37774;52.192;4.584;2023-01-26T08:33:08;103080.28;;;2.79;100.00
51687;BME280;37774;52.192;4.584;2023-01-26T08:35:35;103132.09;;;3.15;100.00
51687;BME280;37774;52.192;4.584;2023-01-26T08:38:01;103077.47;;;2.89;100.00
51687;BME280;37774;52.192;4.584;2023-01-26T08:40:28;102803.59;;;1.29;100.00
51687;BME280;37774;52.192;4.584;2023-01-26T08:42:59;103131.84;;;3.26;100.00
51687;BME280;37774;52.192;4.584;2023-01-26T08:45:25;103100.44;;;3.16;100.00
51687;BME280;37774;52.192;4.584;2023-01-26T08:47:52;103135.84;;;3.35;100.00
51687;BME280;37774;52.192;4.584;2023-01-26T08:50:20;103087.25;;;3.10;100.00
51687;BME280;37774;52.192;4.584;2023-01-26T08:52:47;103132.91;;;3.44;100.00
51687;BME280;37774;52.192;4.584;2023-01-26T08:55:14;103020.91;;;2.74;100.00
51687;BME280;37774;52.192;4.584;2023-01-26T08:57:41;103141.09;;;3.52;100.00
51687;BME280;37774;52.192;4.584;2023-01-26T09:00:09;103161.13;;;3.58;100.00
51687;BME280;37774;52.192;4.584;2023-01-26T09:02:36;103082.47;;;3.16;100.00
51687;BME280;37774;52.192;4.584;2023-01-26T09:05:03;103148.63;;;3.64;100.00
51687;BME280;37774;52.192;4.584;2023-01-26T09:07:31;103154.56;;;3.63;100.00
51687;BME280;37774;52.192;4.584;2023-01-26T09:09:58;103160.84;;;3.68;100.00
51687;BME280;37774;52.192;4.584;2023-01-26T09:12:25;103051.34;;;3.12;100.00
51687;BME280;37774;52.192;4.584;2023-01-26T09:14:51;103102.97;;;3.45;100.00
51687;BME280;37774;52.192;4.584;2023-01-26T09:17:18;103169.66;;;3.87;100.00
51687;BME280;37774;52.192;4.584;2023-01-26T09:19:45;103171.44;;;3.88;100.00
51687;BME280;37774;52.192;4.584;2023-01-26T09:22:12;103042.69;;;3.25;100.00
51687;BME280;37774;52.192;4.584;2023-01-26T09:24:40;103058.91;;;3.39;100.00
51687;BME280;37774;52.192;4.584;2023-01-26T09:27:07;103171.13;;;4.13;100.00
51687;BME280;37774;52.192;4.584;2023-01-26T09:29:33;103175.75;;;4.19;100.00
51687;BME280;37774;52.192;4.584;2023-01-26T09:32:00;103172.03;;;4.29;100.00
51687;BME280;37774;52.192;4.584;2023-01-26T09:34:27;103165.69;;;4.23;100.00
51687;BME280;37774;52.192;4.584;2023-01-26T09:36:54;102749.94;;;1.89;100.00
51687;BME280;37774;52.192;4.584;2023-01-26T09:39:21;102798.13;;;2.10;100.00
51687;BME280;37774;52.192;4.584;2023-01-26T09:41:59;103178.72;;;4.42;100.00
51687;BME280;37774;52.192;4.584;2023-01-26T09:44:32;103064.56;;;3.78;100.00
51687;BME280;37774;52.192;4.584;2023-01-26T09:47:05;103176.13;;;4.57;100.00
51687;BME280;37774;52.192;4.584;2023-01-26T09:49:45;103173.09;;;4.64;100.00
51687;BME280;37774;52.192;4.584;2023-01-26T09:52:19;103007.81;;;3.60;100.00
51687;BME280;37774;52.192;4.584;2023-01-26T09:54:50;103144.16;;;4.53;100.00
51687;BME280;37774;52.192;4.584;2023-01-26T09:57:23;103040.28;;;4.04;100.00
51687;BME280;37774;52.192;4.584;2023-01-26T09:59:56;103100.84;;;4.46;100.00
51687;BME280;37774;52.192;4.584;2023-01-26T10:02:34;103165.53;;;4.67;100.00
51687;BME280;37774;52.192;4.584;2023-01-26T10:05:13;102980.59;;;3.78;100.00
51687;BME280;37774;52.192;4.584;2023-01-26T10:07:42;103093.13;;;4.46;100.00
51687;BME280;37774;52.192;4.584;2023-01-26T10:10:23;102866.44;;;3.28;100.00
51687;BME280;37774;52.192;4.584;2023-01-26T10:12:52;103156.69;;;5.11;100.00
51687;BME280;37774;52.192;4.584;2023-01-26T10:15:28;103149.84;;;5.12;100.00
51687;BME280;37774;52.192;4.584;2023-01-26T10:17:57;103141.78;;;5.22;100.00
51687;BME280;37774;52.192;4.584;2023-01-26T10:20:28;103097.69;;;5.00;100.00
51687;BME280;37774;52.192;4.584;2023-01-26T10:23:00;102948.31;;;4.17;100.00
51687;BME280;37774;52.192;4.584;2023-01-26T10:25:33;103122.44;;;5.31;100.00
51687;BME280;37774;52.192;4.584;2023-01-26T10:28:11;103102.88;;;5.34;100.00
51687;BME280;37774;52.192;4.584;2023-01-26T10:30:39;103085.22;;;5.25;100.00
51687;BME280;37774;52.192;4.584;2023-01-26T10:33:13;103094.53;;;5.40;100.00
51687;BME280;37774;52.192;4.584;2023-01-26T10:35:41;103098.22;;;5.45;100.00
51687;BME280;37774;52.192;4.584;2023-01-26T10:38:25;103088.81;;;5.46;100.00
51687;BME280;37774;52.192;4.584;2023-01-26T10:40:53;103085.84;;;5.38;100.00
51687;BME280;37774;52.192;4.584;2023-01-26T10:43:23;103059.28;;;5.22;100.00
51687;BME280;37774;52.192;4.584;2023-01-26T10:45:50;102969.28;;;5.09;100.00
51687;BME280;37774;52.192;4.584;2023-01-26T10:48:18;103039.16;;;5.68;100.00
51687;BME280;37774;52.192;4.584;2023-01-26T10:50:46;102963.09;;;5.23;100.00
51687;BME280;37774;52.192;4.584;2023-01-26T10:53:15;103025.88;;;5.78;100.00
51687;BME280;37774;52.192;4.584;2023-01-26T10:55:57;103006.13;;;5.79;100.00
51687;BME280;37774;52.192;4.584;2023-01-26T10:58:43;102991.84;;;5.85;100.00
51687;BME280;37774;52.192;4.584;2023-01-26T11:01:11;102911.88;;;5.49;100.00
51687;BME280;37774;52.192;4.584;2023-01-26T11:03:39;102972.56;;;5.97;100.00
51687;BME280;37774;52.192;4.584;2023-01-26T11:06:07;102969.75;;;6.10;100.00
51687;BME280;37774;52.192;4.584;2023-01-26T11:08:39;102965.47;;;6.11;100.00
51687;BME280;37774;52.192;4.584;2023-01-26T11:11:06;102936.75;;;6.03;100.00
51687;BME280;37774;52.192;4.584;2023-01-26T11:14:01;102976.38;;;6.43;100.00
51687;BME280;37774;52.192;4.584;2023-01-26T11:16:36;102953.91;;;6.62;100.00
51687;BME280;37774;52.192;4.584;2023-01-26T11:19:07;102951.34;;;6.62;100.00
51687;BME280;37774;52.192;4.584;2023-01-26T11:21:39;102953.56;;;6.54;100.00
51687;BME280;37774;52.192;4.584;2023-01-26T11:24:12;102851.13;;;5.94;100.00
51687;BME280;37774;52.192;4.584;2023-01-26T11:27:12;102941.56;;;6.54;100.00
51687;BME280;37774;52.192;4.584;2023-01-26T11:30:01;102938.34;;;6.60;100.00
51687;BME280;37774;52.192;4.584;2023-01-26T11:32:40;102938.72;;;6.69;100.00
51687;BME280;37774;52.192;4.584;2023-01-26T11:35:14;102837.72;;;6.22;100.00
51687;BME280;37774;52.192;4.584;2023-01-26T11:37:52;102518.13;;;4.07;100.00
51687;BME280;37774;52.192;4.584;2023-01-26T11:40:31;102887.19;;;6.32;100.00
51687;BME280;37774;52.192;4.584;2023-01-26T11:43:12;102897.03;;;6.40;100.00
51687;BME280;37774;52.192;4.584;2023-01-26T11:45:59;102929.59;;;6.56;100.00
51687;BME280;37774;52.192;4.584;2023-01-26T11:48:35;102888.53;;;6.02;100.00
51687;BME280;37774;52.192;4.584;2023-01-26T11:51:10;103007.28;;;6.61;100.00
51687;BME280;37774;52.192;4.584;2023-01-26T11:53:59;102811.81;;;5.22;100.00
51687;BME280;37774;52.192;4.584;2023-01-26T11:56:38;103014.72;;;6.75;100.00
51687;BME280;37774;52.192;4.584;2023-01-26T11:59:13;103016.75;;;6.82;100.00
51687;BME280;37774;52.192;4.584;2023-01-26T12:01:47;103014.94;;;6.79;100.00
51687;BME280;37774;52.192;4.584;2023-01-26T12:04:18;102981.56;;;6.64;100.00
51687;BME280;37774;52.192;4.584;2023-01-26T12:06:49;102886.59;;;6.18;100.00
51687;BME280;37774;52.192;4.584;2023-01-26T12:09:20;103030.59;;;6.82;100.00
51687;BME280;37774;52.192;4.584;2023-01-26T12:11:56;103011.59;;;6.82;100.00
51687;BME280;37774;52.192;4.584;2023-01-26T12:14:26;102711.47;;;5.07;100.00
51687;BME280;37774;52.192;4.584;2023-01-26T12:19:57;102894.19;;;6.34;100.00
51687;BME280;37774;52.192;4.584;2023-01-26T12:22:32;102703.59;;;5.24;100.00
51687;BME280;37774;52.192;4.584;2023-01-26T12:25:02;102970.03;;;6.97;100.00
51687;BME280;37774;52.192;4.584;2023-01-26T12:27:35;102920.25;;;6.60;100.00
51687;BME280;37774;52.192;4.584;2023-01-26T12:30:20;102911.72;;;6.41;100.00
51687;BME280;37774;52.192;4.584;2023-01-26T12:32:50;102857.00;;;6.09;100.00
51687;BME280;37774;52.192;4.584;2023-01-26T12:35:23;102943.88;;;6.48;100.00
51687;BME280;37774;52.192;4.584;2023-01-26T12:37:59;102921.06;;;6.38;100.00
51687;BME280;37774;52.192;4.584;2023-01-26T12:40:34;102920.94;;;6.56;100.00
51687;BME280;37774;52.192;4.584;2023-01-26T12:43:13;102923.81;;;6.42;100.00
51687;BME280;37774;52.192;4.584;2023-01-26T12:45:45;102835.44;;;5.89;100.00
51687;BME280;37774;52.192;4.584;2023-01-26T12:48:17;102942.69;;;6.61;100.00
51687;BME280;37774;52.192;4.584;2023-01-26T12:50:48;102942.41;;;6.55;100.00
51687;BME280;37774;52.192;4.584;2023-01-26T12:53:20;102923.03;;;6.65;100.00
51687;BME280;37774;52.192;4.584;2023-01-26T12:55:58;102930.13;;;6.90;100.00
51687;BME280;37774;52.192;4.584;2023-01-26T12:58:32;102823.41;;;6.29;100.00
51687;BME280;37774;52.192;4.584;2023-01-26T13:01:04;102916.06;;;6.83;100.00
51687;BME280;37774;52.192;4.584;2023-01-26T13:03:33;102871.03;;;6.57;100.00
51687;BME280;37774;52.192;4.584;2023-01-26T13:06:18;102902.34;;;6.86;100.00
51687;BME280;37774;52.192;4.584;2023-01-26T13:09:00;102892.00;;;6.86;100.00
51687;BME280;37774;52.192;4.584;2023-01-26T13:11:46;102871.75;;;6.95;100.00